Keiho Maru — JJ4010 — position and weather

sailwx.info

Track history (hours):
 
Tides and Currents Weather Stations Pressure Air Temp Water Temp Dewpoint Dewpoint Depression Visibility Wind Speed Wind Dir Waves Ship Positions

Keiho Maru

Last reported at 2016-Dec-07 01:33 UTC. Time now 2016-Dec-11 06:20 UTC.
Position N 34°41' E 135°12'.

Length 38 m; draft 3.6 m.

Type: Tug. MMSI: 431401501.

Date/timePositionNaut miles runAvg speedWind from/ knotsBaromVisibWave heightAir tempDewpointWater temp
2016-Dec-07 01:33N 34°41' E 135°12'2 0.0
2016-Dec-05 09:33N 34°41' E 135°15'8 8.0
2016-Dec-05 08:32N 34°39' E 135°24'5 4.9
2016-Dec-05 07:33N 34°40' E 135°19'5 5.3
2016-Dec-05 06:33N 34°41' E 135°12'0 0.0
2016-Dec-05 05:33N 34°41' E 135°12'0 0.0
2016-Dec-05 04:33N 34°41' E 135°12'0 0.0
2016-Dec-05 03:33N 34°41' E 135°12'0 0.0
2016-Dec-05 02:33N 34°41' E 135°12'0 0.0
2016-Dec-05 01:33N 34°41' E 135°12'0 0.0
2016-Dec-05 00:33N 34°41' E 135°12'0 0.0
2016-Dec-04 23:33N 34°41' E 135°12'0 0.0
2016-Dec-03 07:32N 34°41' E 135°12'7 7.3
2016-Dec-03 06:33N 34°40' E 135°21'7 7.0
2016-Dec-03 05:32N 34°41' E 135°12'0 0.0
2016-Dec-03 04:33N 34°41' E 135°12'0 0.0
2016-Dec-03 03:33N 34°41' E 135°12'0 0.0
2016-Dec-03 02:33N 34°41' E 135°12'0 0.0
2016-Dec-03 01:33N 34°41' E 135°12'0 0.0
2016-Dec-03 00:33N 34°41' E 135°12'2 1.6
2016-Dec-02 23:33N 34°41' E 135°14'2 1.6
2016-Dec-02 22:33N 34°39' E 135°15'1 1.4
2016-Dec-02 21:33N 34°39' E 135°13'2 0.2
2016-Dec-02 10:22N 34°41' E 135°12'4 5.0
2016-Dec-02 09:33N 34°42' E 135°17'1 0.8
2016-Dec-02 08:33N 34°42' E 135°16'0 0.0
2016-Dec-02 07:33N 34°42' E 135°16'3 2.7
2016-Dec-02 06:33N 34°40' E 135°13'1 1.0
2016-Dec-02 05:31N 34°41' E 135°12'0 0.0
2016-Dec-02 04:33N 34°41' E 135°12'0 0.0
2016-Dec-02 03:33N 34°41' E 135°12'0 0.0
2016-Dec-02 02:33N 34°41' E 135°12'0 0.0
2016-Dec-02 01:33N 34°41' E 135°12'0 0.0
2016-Dec-02 00:33N 34°41' E 135°12'2 1.6
2016-Dec-01 23:33N 34°41' E 135°14'2 1.5
2016-Dec-01 22:33N 34°42' E 135°16'1 1.4
2016-Dec-01 21:33N 34°41' E 135°14'  
2016-Nov-29 07:33N 34°41' E 135°12'4 4.0
2016-Nov-29 06:33N 34°42' E 135°17'1 0.7
2016-Nov-29 05:33N 34°42' E 135°16'0 0.0
2016-Nov-29 04:33N 34°42' E 135°16'2 2.0
2016-Nov-29 03:33N 34°40' E 135°15'3 2.5
2016-Nov-29 02:33N 34°41' E 135°12'0 0.4
2016-Nov-29 01:33N 34°41' E 135°12'0 0.0
2016-Nov-29 00:33N 34°41' E 135°12'0 0.0
2016-Nov-28 23:33N 34°41' E 135°12'1 0.1
2016-Nov-28 08:33N 34°41' E 135°13'1 0.7
2016-Nov-28 07:33N 34°41' E 135°13'1 0.8
2016-Nov-28 06:33N 34°41' E 135°12'0 0.0
2016-Nov-28 05:33N 34°41' E 135°12'0 0.0
2016-Nov-28 04:32N 34°41' E 135°12'0 0.0
2016-Nov-28 03:33N 34°41' E 135°12'0 0.0
2016-Nov-28 02:33N 34°41' E 135°12'0 0.0
2016-Nov-28 01:33N 34°41' E 135°12'0 0.0
2016-Nov-28 00:33N 34°41' E 135°12'0 0.0
2016-Nov-27 23:33N 34°41' E 135°12'4 4.4
2016-Nov-27 22:33N 34°41' E 135°17'0 0.4
2016-Nov-27 21:33N 34°41' E 135°17'4 0.3
2016-Nov-27 07:33N 34°41' E 135°12'4 4.1
2016-Nov-27 06:33N 34°41' E 135°17'4 4.0
2016-Nov-27 05:33N 34°41' E 135°12'0 0.0
2016-Nov-27 04:33N 34°41' E 135°12'0 0.0
2016-Nov-27 03:33N 34°41' E 135°12'0 0.0
2016-Nov-27 02:33N 34°41' E 135°12'  
Track history (hours):
 
Tides and Currents Weather Stations Pressure Air Temp Water Temp Dewpoint Dewpoint Depression Visibility Wind Speed Wind Dir Waves Ship Positions

Keiho Maru

Last reported at 2016-Dec-07 01:33 UTC. Time now 2016-Dec-11 06:20 UTC.
Position N 34°41' E 135°12'.

Length 38 m; draft 3.6 m.

Type: Tug. MMSI: 431401501.

Date/timePositionNaut miles runAvg speedWind from/ knotsBaromVisibWave heightAir tempDewpointWater temp
2016-Dec-07 01:33N 34°41' E 135°12'2 0.0
2016-Dec-05 09:33N 34°41' E 135°15'8 8.0
2016-Dec-05 08:32N 34°39' E 135°24'5 4.9
2016-Dec-05 07:33N 34°40' E 135°19'5 5.3
2016-Dec-05 06:33N 34°41' E 135°12'0 0.0
2016-Dec-05 05:33N 34°41' E 135°12'0 0.0
2016-Dec-05 04:33N 34°41' E 135°12'0 0.0
2016-Dec-05 03:33N 34°41' E 135°12'0 0.0
2016-Dec-05 02:33N 34°41' E 135°12'0 0.0
2016-Dec-05 01:33N 34°41' E 135°12'0 0.0
2016-Dec-05 00:33N 34°41' E 135°12'0 0.0
2016-Dec-04 23:33N 34°41' E 135°12'0 0.0
2016-Dec-03 07:32N 34°41' E 135°12'7 7.3
2016-Dec-03 06:33N 34°40' E 135°21'7 7.0
2016-Dec-03 05:32N 34°41' E 135°12'0 0.0
2016-Dec-03 04:33N 34°41' E 135°12'0 0.0
2016-Dec-03 03:33N 34°41' E 135°12'0 0.0
2016-Dec-03 02:33N 34°41' E 135°12'0 0.0
2016-Dec-03 01:33N 34°41' E 135°12'0 0.0
2016-Dec-03 00:33N 34°41' E 135°12'2 1.6
2016-Dec-02 23:33N 34°41' E 135°14'2 1.6
2016-Dec-02 22:33N 34°39' E 135°15'1 1.4
2016-Dec-02 21:33N 34°39' E 135°13'2 0.2
2016-Dec-02 10:22N 34°41' E 135°12'4 5.0
2016-Dec-02 09:33N 34°42' E 135°17'1 0.8
2016-Dec-02 08:33N 34°42' E 135°16'0 0.0
2016-Dec-02 07:33N 34°42' E 135°16'3 2.7
2016-Dec-02 06:33N 34°40' E 135°13'1 1.0
2016-Dec-02 05:31N 34°41' E 135°12'0 0.0
2016-Dec-02 04:33N 34°41' E 135°12'0 0.0
2016-Dec-02 03:33N 34°41' E 135°12'0 0.0
2016-Dec-02 02:33N 34°41' E 135°12'0 0.0
2016-Dec-02 01:33N 34°41' E 135°12'0 0.0
2016-Dec-02 00:33N 34°41' E 135°12'2 1.6
2016-Dec-01 23:33N 34°41' E 135°14'2 1.5
2016-Dec-01 22:33N 34°42' E 135°16'1 1.4
2016-Dec-01 21:33N 34°41' E 135°14'  
2016-Nov-29 07:33N 34°41' E 135°12'4 4.0
2016-Nov-29 06:33N 34°42' E 135°17'1 0.7
2016-Nov-29 05:33N 34°42' E 135°16'0 0.0
2016-Nov-29 04:33N 34°42' E 135°16'2 2.0
2016-Nov-29 03:33N 34°40' E 135°15'3 2.5
2016-Nov-29 02:33N 34°41' E 135°12'0 0.4
2016-Nov-29 01:33N 34°41' E 135°12'0 0.0
2016-Nov-29 00:33N 34°41' E 135°12'0 0.0
2016-Nov-28 23:33N 34°41' E 135°12'1 0.1
2016-Nov-28 08:33N 34°41' E 135°13'1 0.7
2016-Nov-28 07:33N 34°41' E 135°13'1 0.8
2016-Nov-28 06:33N 34°41' E 135°12'0 0.0
2016-Nov-28 05:33N 34°41' E 135°12'0 0.0
2016-Nov-28 04:32N 34°41' E 135°12'0 0.0
2016-Nov-28 03:33N 34°41' E 135°12'0 0.0
2016-Nov-28 02:33N 34°41' E 135°12'0 0.0
2016-Nov-28 01:33N 34°41' E 135°12'0 0.0
2016-Nov-28 00:33N 34°41' E 135°12'0 0.0
2016-Nov-27 23:33N 34°41' E 135°12'4 4.4
2016-Nov-27 22:33N 34°41' E 135°17'0 0.4
2016-Nov-27 21:33N 34°41' E 135°17'4 0.3
2016-Nov-27 07:33N 34°41' E 135°12'4 4.1
2016-Nov-27 06:33N 34°41' E 135°17'4 4.0
2016-Nov-27 05:33N 34°41' E 135°12'0 0.0
2016-Nov-27 04:33N 34°41' E 135°12'0 0.0
2016-Nov-27 03:33N 34°41' E 135°12'0 0.0
2016-Nov-27 02:33N 34°41' E 135°12'  

Dump ship's entire track history